KLCH/LCH METAR and TAF weather

Enter ICAO airport designator
Station Type Date Time Source
KLCH METAR 2020/01/22 14:53 UTC NOAA

KLCH 221453Z 10012KT 10SM OVC100 07/M01 A3027 RMK AO2 SLP258 T00671006 58002


Station Type Date Time Source
KLCH Decoded METAR 2020/01/22 14:53 UTC NOAA

LAKE CHARLES REGIONAL AIRPORT , LA, United States (KLCH) 30-12N 093-23W 3M
Jan 22, 2020 - 09:53 AM EST / 2020.01.22 1453 UTC
Wind: from the E (100 degrees) at 14 MPH (12 KT):0
Visibility: 10 mile(s):0
Sky conditions: overcast
Temperature: 44.1 F (6.7 C)
Dew Point: 30.9 F (-0.6 C)
Relative Humidity: 59%
Pressure (altimeter): 30.27 in. Hg (1025 hPa)
Pressure tendency: 0.01 inches (0.2 hPa) lower than three hours ago
ob: KLCH 221453Z 10012KT 10SM OVC100 07/M01 A3027 RMK AO2 SLP258 T00671006 58002
cycle: 15

Station Type Date Time Source
KLCH TAF 2020/01/22 12:48 UTC NOAA

TAF KLCH 221144Z 2212/2312 09009KT P6SM OVC200
FM221600 10012KT P6SM SCT025 OVC080
FM222000 12016G22KT P6SM VCSH OVC015
TEMPO 2220/2224 5SM -SHRA BR OVC007
FM230000 12017G24KT 5SM -SHRA OVC007

Example: see airport list